CNN8 weather

Gananoque Airport
Gananoque, Ontario, Canada

Public forecast

Using degrees Celsius for public forecast. Weather courtesy of forecast.io.

Closest aviation weather report (METAR) to Gananoque Airport

Closest report is Kingston Norman Rogers Airport, 18.5 nm (34.3 km) SW. Retrieved 2020/02/18 12:00 UTC (8 minutes ago):

CYGK 181200Z 09009KT 1SM -SN DRSN OVC007 M04/M04 A3009 RMK SF8 CIG RAG /S02/ SLP196

Closest aviation forecast (TAF) to Gananoque Airport

Closest forecast is Kingston Norman Rogers Airport, 18.5 nm (34.3 km) SW. Retrieved 2020/02/18 13:42 UTC (0 seconds ago):

TAF TAF CYGK 181238Z 1813/1901 14018G28KT 3/4SM -SN VV006 TEMPO 1813/1816 2SM -SN OVC010 FM181600 16020G30KT 11/2SM -SNRA BR OVC007 TEMPO 1816/1818 6SM -SNRA BR OVC012 FM181800 18020G35KT P6SM -RA OVC012 TEMPO 1818/1822 5SM -RA BR OVC008 FM182200 22018G28KT P6SM BKN025 TEMPO 1822/1824 P6SM -SHRA OVC020 BECMG 1822/1824 25018G28KT RMK NXT FCST BY 182000Z